sensor_id;sensor_type;location;lat;lon;timestamp;P1;durP1;ratioP1;P2;durP2;ratioP2
44995;SDS011;30729;49.486;10.792;2023-11-18T15:43:11;7.25;;;3.55;;
44995;SDS011;30729;49.486;10.792;2023-11-18T15:45:37;8.23;;;4.15;;
44995;SDS011;30729;49.486;10.792;2023-11-18T15:48:02;8.63;;;4.18;;
44995;SDS011;30729;49.486;10.792;2023-11-18T15:50:32;8.82;;;3.60;;
44995;SDS011;30729;49.486;10.792;2023-11-18T15:53:02;6.93;;;3.90;;
44995;SDS011;30729;49.486;10.792;2023-11-18T15:55:27;12.93;;;5.10;;
44995;SDS011;30729;49.486;10.792;2023-11-18T15:57:53;9.02;;;4.30;;
44995;SDS011;30729;49.486;10.792;2023-11-18T16:00:22;12.25;;;5.90;;
44995;SDS011;30729;49.486;10.792;2023-11-18T16:02:56;13.25;;;6.72;;
44995;SDS011;30729;49.486;10.792;2023-11-18T16:05:22;17.58;;;8.23;;
44995;SDS011;30729;49.486;10.792;2023-11-18T16:07:49;15.50;;;8.82;;
44995;SDS011;30729;49.486;10.792;2023-11-18T16:10:22;11.35;;;6.43;;
44995;SDS011;30729;49.486;10.792;2023-11-18T16:12:48;11.55;;;6.75;;
44995;SDS011;30729;49.486;10.792;2023-11-18T16:15:17;17.27;;;7.68;;
44995;SDS011;30729;49.486;10.792;2023-11-18T16:17:44;16.23;;;8.15;;
44995;SDS011;30729;49.486;10.792;2023-11-18T16:20:11;13.35;;;5.32;;
44995;SDS011;30729;49.486;10.792;2023-11-18T16:22:40;13.38;;;6.18;;
44995;SDS011;30729;49.486;10.792;2023-11-18T16:25:06;14.20;;;6.90;;
44995;SDS011;30729;49.486;10.792;2023-11-18T16:27:31;8.77;;;4.63;;
44995;SDS011;30729;49.486;10.792;2023-11-18T16:29:57;20.20;;;8.52;;
44995;SDS011;30729;49.486;10.792;2023-11-18T16:32:22;20.08;;;8.90;;
44995;SDS011;30729;49.486;10.792;2023-11-18T16:34:47;18.95;;;10.25;;
44995;SDS011;30729;49.486;10.792;2023-11-18T16:37:13;15.65;;;7.95;;
44995;SDS011;30729;49.486;10.792;2023-11-18T16:39:40;13.60;;;7.07;;
44995;SDS011;30729;49.486;10.792;2023-11-18T16:42:06;13.02;;;6.32;;
44995;SDS011;30729;49.486;10.792;2023-11-18T16:44:32;9.15;;;5.30;;
44995;SDS011;30729;49.486;10.792;2023-11-18T16:46:57;7.75;;;4.55;;
44995;SDS011;30729;49.486;10.792;2023-11-18T16:49:23;12.93;;;6.68;;
44995;SDS011;30729;49.486;10.792;2023-11-18T16:51:49;10.02;;;4.72;;
44995;SDS011;30729;49.486;10.792;2023-11-18T16:54:14;9.32;;;4.63;;
44995;SDS011;30729;49.486;10.792;2023-11-18T16:56:39;9.40;;;4.13;;
44995;SDS011;30729;49.486;10.792;2023-11-18T16:59:05;11.02;;;5.00;;
44995;SDS011;30729;49.486;10.792;2023-11-18T17:01:30;12.35;;;6.28;;
44995;SDS011;30729;49.486;10.792;2023-11-18T17:03:55;12.38;;;6.95;;
44995;SDS011;30729;49.486;10.792;2023-11-18T17:06:20;10.85;;;5.55;;
44995;SDS011;30729;49.486;10.792;2023-11-18T17:08:47;9.48;;;5.28;;
44995;SDS011;30729;49.486;10.792;2023-11-18T17:11:13;11.02;;;5.38;;
44995;SDS011;30729;49.486;10.792;2023-11-18T17:13:38;13.00;;;6.10;;
44995;SDS011;30729;49.486;10.792;2023-11-18T17:16:06;9.02;;;4.30;;
44995;SDS011;30729;49.486;10.792;2023-11-18T17:18:32;8.63;;;4.90;;
44995;SDS011;30729;49.486;10.792;2023-11-18T17:20:57;11.95;;;5.05;;
44995;SDS011;30729;49.486;10.792;2023-11-18T17:23:22;13.82;;;7.80;;
44995;SDS011;30729;49.486;10.792;2023-11-18T17:25:49;13.90;;;5.70;;
44995;SDS011;30729;49.486;10.792;2023-11-18T17:28:15;9.60;;;5.43;;
44995;SDS011;30729;49.486;10.792;2023-11-18T17:30:42;8.27;;;4.10;;
44995;SDS011;30729;49.486;10.792;2023-11-18T17:33:08;9.18;;;5.00;;
44995;SDS011;30729;49.486;10.792;2023-11-18T17:35:33;7.93;;;3.92;;
44995;SDS011;30729;49.486;10.792;2023-11-18T17:37:58;12.85;;;5.88;;
44995;SDS011;30729;49.486;10.792;2023-11-18T17:40:24;8.25;;;4.07;;
44995;SDS011;30729;49.486;10.792;2023-11-18T17:42:49;6.43;;;3.50;;
44995;SDS011;30729;49.486;10.792;2023-11-18T17:45:17;7.20;;;3.20;;
44995;SDS011;30729;49.486;10.792;2023-11-18T17:47:43;6.78;;;3.17;;
44995;SDS011;30729;49.486;10.792;2023-11-18T17:50:09;5.47;;;2.70;;
44995;SDS011;30729;49.486;10.792;2023-11-18T17:52:42;6.80;;;3.17;;
44995;SDS011;30729;49.486;10.792;2023-11-18T17:55:12;10.05;;;3.50;;
44995;SDS011;30729;49.486;10.792;2023-11-18T17:57:41;7.78;;;3.30;;
44995;SDS011;30729;49.486;10.792;2023-11-18T18:00:07;9.43;;;3.97;;
44995;SDS011;30729;49.486;10.792;2023-11-18T18:02:37;6.95;;;3.70;;
44995;SDS011;30729;49.486;10.792;2023-11-18T18:05:04;7.07;;;4.15;;
44995;SDS011;30729;49.486;10.792;2023-11-18T18:07:30;9.38;;;4.90;;
44995;SDS011;30729;49.486;10.792;2023-11-18T18:09:56;13.00;;;5.72;;
44995;SDS011;30729;49.486;10.792;2023-11-18T18:12:21;16.17;;;7.07;;
44995;SDS011;30729;49.486;10.792;2023-11-18T18:14:46;13.25;;;7.45;;
44995;SDS011;30729;49.486;10.792;2023-11-18T18:17:12;13.35;;;5.57;;
44995;SDS011;30729;49.486;10.792;2023-11-18T18:19:37;14.35;;;6.05;;
44995;SDS011;30729;49.486;10.792;2023-11-18T18:22:02;9.80;;;5.28;;
44995;SDS011;30729;49.486;10.792;2023-11-18T18:24:28;9.57;;;4.95;;
44995;SDS011;30729;49.486;10.792;2023-11-18T18:26:54;11.00;;;6.65;;
44995;SDS011;30729;49.486;10.792;2023-11-18T18:29:19;13.00;;;6.75;;
44995;SDS011;30729;49.486;10.792;2023-11-18T18:31:44;12.98;;;5.75;;
44995;SDS011;30729;49.486;10.792;2023-11-18T18:34:10;14.23;;;6.43;;
44995;SDS011;30729;49.486;10.792;2023-11-18T18:36:35;11.27;;;6.22;;
44995;SDS011;30729;49.486;10.792;2023-11-18T18:39:01;14.32;;;6.65;;
44995;SDS011;30729;49.486;10.792;2023-11-18T18:41:26;11.52;;;6.47;;
44995;SDS011;30729;49.486;10.792;2023-11-18T18:43:51;12.07;;;6.50;;
44995;SDS011;30729;49.486;10.792;2023-11-18T18:46:17;10.93;;;6.28;;
44995;SDS011;30729;49.486;10.792;2023-11-18T18:48:42;11.73;;;6.57;;
44995;SDS011;30729;49.486;10.792;2023-11-18T18:51:07;11.80;;;6.47;;
44995;SDS011;30729;49.486;10.792;2023-11-18T18:53:33;13.57;;;7.85;;
44995;SDS011;30729;49.486;10.792;2023-11-18T18:55:58;12.00;;;6.90;;
44995;SDS011;30729;49.486;10.792;2023-11-18T18:58:24;13.30;;;8.00;;
44995;SDS011;30729;49.486;10.792;2023-11-18T19:00:49;11.77;;;6.18;;
44995;SDS011;30729;49.486;10.792;2023-11-18T19:03:17;9.23;;;5.38;;
44995;SDS011;30729;49.486;10.792;2023-11-18T19:05:42;10.18;;;5.72;;
44995;SDS011;30729;49.486;10.792;2023-11-18T19:08:07;11.38;;;5.63;;
44995;SDS011;30729;49.486;10.792;2023-11-18T19:10:32;11.93;;;5.50;;
44995;SDS011;30729;49.486;10.792;2023-11-18T19:12:58;9.75;;;4.30;;
44995;SDS011;30729;49.486;10.792;2023-11-18T19:15:26;10.02;;;4.60;;
44995;SDS011;30729;49.486;10.792;2023-11-18T19:17:51;18.45;;;9.35;;
44995;SDS011;30729;49.486;10.792;2023-11-18T19:20:17;9.85;;;6.20;;
44995;SDS011;30729;49.486;10.792;2023-11-18T19:22:42;14.02;;;6.75;;
44995;SDS011;30729;49.486;10.792;2023-11-18T19:25:08;9.38;;;4.95;;
44995;SDS011;30729;49.486;10.792;2023-11-18T19:27:35;8.60;;;4.38;;
44995;SDS011;30729;49.486;10.792;2023-11-18T19:30:00;12.45;;;5.88;;
44995;SDS011;30729;49.486;10.792;2023-11-18T19:32:29;7.25;;;4.18;;
44995;SDS011;30729;49.486;10.792;2023-11-18T19:34:54;8.20;;;4.03;;
44995;SDS011;30729;49.486;10.792;2023-11-18T19:37:19;8.90;;;4.10;;
44995;SDS011;30729;49.486;10.792;2023-11-18T19:39:45;9.70;;;4.13;;
44995;SDS011;30729;49.486;10.792;2023-11-18T19:42:11;7.97;;;3.63;;
44995;SDS011;30729;49.486;10.792;2023-11-18T19:44:36;8.80;;;2.88;;
44995;SDS011;30729;49.486;10.792;2023-11-18T19:47:02;9.60;;;4.65;;
44995;SDS011;30729;49.486;10.792;2023-11-18T19:49:28;11.95;;;5.22;;
44995;SDS011;30729;49.486;10.792;2023-11-18T19:51:56;6.20;;;3.28;;
44995;SDS011;30729;49.486;10.792;2023-11-18T19:54:22;6.88;;;3.13;;
44995;SDS011;30729;49.486;10.792;2023-11-18T19:56:47;8.80;;;3.90;;
44995;SDS011;30729;49.486;10.792;2023-11-18T19:59:14;7.78;;;3.33;;
44995;SDS011;30729;49.486;10.792;2023-11-18T20:01:39;9.77;;;4.20;;
44995;SDS011;30729;49.486;10.792;2023-11-18T20:04:05;9.63;;;4.03;;
44995;SDS011;30729;49.486;10.792;2023-11-18T20:06:30;8.77;;;3.75;;
44995;SDS011;30729;49.486;10.792;2023-11-18T20:08:55;8.73;;;3.70;;
44995;SDS011;30729;49.486;10.792;2023-11-18T20:11:21;8.02;;;3.63;;
44995;SDS011;30729;49.486;10.792;2023-11-18T20:13:46;7.03;;;4.13;;
44995;SDS011;30729;49.486;10.792;2023-11-18T20:16:11;7.72;;;4.25;;
44995;SDS011;30729;49.486;10.792;2023-11-18T20:18:37;7.45;;;3.47;;
44995;SDS011;30729;49.486;10.792;2023-11-18T20:21:02;8.93;;;4.35;;
44995;SDS011;30729;49.486;10.792;2023-11-18T20:23:28;8.18;;;4.68;;
44995;SDS011;30729;49.486;10.792;2023-11-18T20:25:53;9.10;;;4.85;;
44995;SDS011;30729;49.486;10.792;2023-11-18T20:28:18;7.32;;;3.38;;
44995;SDS011;30729;49.486;10.792;2023-11-18T20:30:44;9.00;;;4.00;;
44995;SDS011;30729;49.486;10.792;2023-11-18T20:33:09;8.05;;;3.60;;
44995;SDS011;30729;49.486;10.792;2023-11-18T20:35:35;10.35;;;4.68;;
44995;SDS011;30729;49.486;10.792;2023-11-18T20:38:01;10.20;;;5.03;;
44995;SDS011;30729;49.486;10.792;2023-11-18T20:40:27;8.18;;;3.95;;
44995;SDS011;30729;49.486;10.792;2023-11-18T20:42:53;7.75;;;3.65;;
44995;SDS011;30729;49.486;10.792;2023-11-18T20:45:18;7.57;;;4.28;;
44995;SDS011;30729;49.486;10.792;2023-11-18T20:47:44;8.82;;;3.72;;
44995;SDS011;30729;49.486;10.792;2023-11-18T20:50:10;7.43;;;3.63;;
44995;SDS011;30729;49.486;10.792;2023-11-18T20:52:39;8.90;;;4.78;;
44995;SDS011;30729;49.486;10.792;2023-11-18T20:55:05;10.43;;;4.90;;
44995;SDS011;30729;49.486;10.792;2023-11-18T20:57:34;10.75;;;4.35;;
44995;SDS011;30729;49.486;10.792;2023-11-18T20:59:59;7.85;;;4.78;;
44995;SDS011;30729;49.486;10.792;2023-11-18T21:02:25;7.03;;;3.63;;
44995;SDS011;30729;49.486;10.792;2023-11-18T21:04:50;7.53;;;4.07;;
44995;SDS011;30729;49.486;10.792;2023-11-18T21:07:15;7.03;;;3.60;;
44995;SDS011;30729;49.486;10.792;2023-11-18T21:09:41;8.18;;;3.50;;
44995;SDS011;30729;49.486;10.792;2023-11-18T21:12:07;7.28;;;3.92;;
44995;SDS011;30729;49.486;10.792;2023-11-18T21:14:32;9.02;;;4.22;;
44995;SDS011;30729;49.486;10.792;2023-11-18T21:16:58;7.90;;;4.15;;
44995;SDS011;30729;49.486;10.792;2023-11-18T21:19:24;8.57;;;3.75;;
44995;SDS011;30729;49.486;10.792;2023-11-18T21:21:49;7.95;;;3.78;;
44995;SDS011;30729;49.486;10.792;2023-11-18T21:24:15;6.88;;;3.53;;
44995;SDS011;30729;49.486;10.792;2023-11-18T21:26:41;10.10;;;4.05;;
44995;SDS011;30729;49.486;10.792;2023-11-18T21:29:07;7.95;;;3.80;;
44995;SDS011;30729;49.486;10.792;2023-11-18T21:31:32;9.20;;;3.40;;
44995;SDS011;30729;49.486;10.792;2023-11-18T21:33:57;8.27;;;3.58;;
44995;SDS011;30729;49.486;10.792;2023-11-18T21:36:23;8.57;;;4.13;;
44995;SDS011;30729;49.486;10.792;2023-11-18T21:38:48;8.38;;;3.95;;
44995;SDS011;30729;49.486;10.792;2023-11-18T21:41:14;6.45;;;3.28;;
44995;SDS011;30729;49.486;10.792;2023-11-18T21:43:39;8.10;;;4.13;;
44995;SDS011;30729;49.486;10.792;2023-11-18T21:46:05;7.82;;;4.35;;
44995;SDS011;30729;49.486;10.792;2023-11-18T21:48:30;7.15;;;4.00;;
44995;SDS011;30729;49.486;10.792;2023-11-18T21:50:55;9.63;;;4.80;;
44995;SDS011;30729;49.486;10.792;2023-11-18T21:53:21;9.13;;;5.28;;
44995;SDS011;30729;49.486;10.792;2023-11-18T21:55:46;7.70;;;3.85;;
44995;SDS011;30729;49.486;10.792;2023-11-18T21:58:22;8.25;;;4.75;;
44995;SDS011;30729;49.486;10.792;2023-11-18T22:00:48;9.27;;;3.83;;
44995;SDS011;30729;49.486;10.792;2023-11-18T22:03:14;9.15;;;4.13;;
44995;SDS011;30729;49.486;10.792;2023-11-18T22:05:39;11.65;;;6.57;;
44995;SDS011;30729;49.486;10.792;2023-11-18T22:08:04;8.90;;;5.53;;
44995;SDS011;30729;49.486;10.792;2023-11-18T22:10:32;10.48;;;4.43;;
44995;SDS011;30729;49.486;10.792;2023-11-18T22:12:58;8.20;;;4.38;;
44995;SDS011;30729;49.486;10.792;2023-11-18T22:15:23;7.40;;;3.55;;
44995;SDS011;30729;49.486;10.792;2023-11-18T22:17:48;7.45;;;3.83;;
44995;SDS011;30729;49.486;10.792;2023-11-18T22:20:14;7.00;;;3.97;;
44995;SDS011;30729;49.486;10.792;2023-11-18T22:22:41;11.57;;;5.00;;
44995;SDS011;30729;49.486;10.792;2023-11-18T22:25:07;8.75;;;4.13;;
44995;SDS011;30729;49.486;10.792;2023-11-18T22:27:32;7.95;;;3.83;;
44995;SDS011;30729;49.486;10.792;2023-11-18T22:29:59;9.55;;;4.47;;
44995;SDS011;30729;49.486;10.792;2023-11-18T22:32:25;7.25;;;3.95;;
44995;SDS011;30729;49.486;10.792;2023-11-18T22:34:50;9.63;;;3.72;;
